sensor_id;sensor_type;location;lat;lon;timestamp;temperature;humidity
68766;DHT22;55756;45.582;11.484;2023-10-09T00:02:12;21.60;68.30
68766;DHT22;55756;45.582;11.484;2023-10-09T00:04:40;21.60;68.20
68766;DHT22;55756;45.582;11.484;2023-10-09T00:07:13;21.60;68.10
68766;DHT22;55756;45.582;11.484;2023-10-09T00:09:42;21.60;68.00
68766;DHT22;55756;45.582;11.484;2023-10-09T00:12:11;21.60;68.00
68766;DHT22;55756;45.582;11.484;2023-10-09T00:14:37;21.60;67.90
68766;DHT22;55756;45.582;11.484;2023-10-09T00:17:04;21.60;67.80
68766;DHT22;55756;45.582;11.484;2023-10-09T00:19:36;21.60;67.60
68766;DHT22;55756;45.582;11.484;2023-10-09T00:22:03;21.60;67.50
68766;DHT22;55756;45.582;11.484;2023-10-09T00:24:55;21.50;67.50
68766;DHT22;55756;45.582;11.484;2023-10-09T00:27:41;21.50;67.30
68766;DHT22;55756;45.582;11.484;2023-10-09T00:30:12;21.50;67.10
68766;DHT22;55756;45.582;11.484;2023-10-09T00:32:47;21.50;67.20
68766;DHT22;55756;45.582;11.484;2023-10-09T00:35:27;21.50;67.50
68766;DHT22;55756;45.582;11.484;2023-10-09T00:38:08;21.50;67.70
68766;DHT22;55756;45.582;11.484;2023-10-09T00:40:47;21.50;67.90
68766;DHT22;55756;45.582;11.484;2023-10-09T00:43:16;21.40;67.90
68766;DHT22;55756;45.582;11.484;2023-10-09T00:45:46;21.40;67.90
68766;DHT22;55756;45.582;11.484;2023-10-09T00:48:12;21.40;67.80
68766;DHT22;55756;45.582;11.484;2023-10-09T00:50:49;21.40;67.90
68766;DHT22;55756;45.582;11.484;2023-10-09T00:53:20;21.40;67.90
68766;DHT22;55756;45.582;11.484;2023-10-09T00:56:01;21.40;67.60
68766;DHT22;55756;45.582;11.484;2023-10-09T00:58:48;21.40;67.30
68766;DHT22;55756;45.582;11.484;2023-10-09T01:01:17;21.30;67.60
68766;DHT22;55756;45.582;11.484;2023-10-09T01:03:43;21.30;67.70
68766;DHT22;55756;45.582;11.484;2023-10-09T01:06:16;21.30;67.70
68766;DHT22;55756;45.582;11.484;2023-10-09T01:08:42;21.30;67.90
68766;DHT22;55756;45.582;11.484;2023-10-09T01:11:11;21.30;68.00
68766;DHT22;55756;45.582;11.484;2023-10-09T01:13:49;21.30;67.90
68766;DHT22;55756;45.582;11.484;2023-10-09T01:16:20;21.30;67.90
68766;DHT22;55756;45.582;11.484;2023-10-09T01:21:20;21.30;67.90
68766;DHT22;55756;45.582;11.484;2023-10-09T01:23:50;21.20;67.90
68766;DHT22;55756;45.582;11.484;2023-10-09T01:26:32;21.20;67.90
68766;DHT22;55756;45.582;11.484;2023-10-09T01:29:21;21.20;67.70
68766;DHT22;55756;45.582;11.484;2023-10-09T01:34:29;21.20;67.80
68766;DHT22;55756;45.582;11.484;2023-10-09T01:37:08;21.20;68.00
68766;DHT22;55756;45.582;11.484;2023-10-09T01:39:52;21.20;68.10
68766;DHT22;55756;45.582;11.484;2023-10-09T01:42:19;21.10;68.20
68766;DHT22;55756;45.582;11.484;2023-10-09T01:45:00;21.10;67.90
68766;DHT22;55756;45.582;11.484;2023-10-09T01:47:55;21.10;67.50
68766;DHT22;55756;45.582;11.484;2023-10-09T01:50:22;21.00;67.30
68766;DHT22;55756;45.582;11.484;2023-10-09T01:52:50;21.00;67.40
68766;DHT22;55756;45.582;11.484;2023-10-09T01:55:19;21.00;67.70
68766;DHT22;55756;45.582;11.484;2023-10-09T01:58:05;21.00;67.80
68766;DHT22;55756;45.582;11.484;2023-10-09T02:00:34;21.00;67.80
68766;DHT22;55756;45.582;11.484;2023-10-09T02:03:09;21.00;67.80
68766;DHT22;55756;45.582;11.484;2023-10-09T02:05:49;21.00;68.10
68766;DHT22;55756;45.582;11.484;2023-10-09T02:08:17;21.00;68.20
68766;DHT22;55756;45.582;11.484;2023-10-09T02:10:48;21.00;68.30
68766;DHT22;55756;45.582;11.484;2023-10-09T02:13:13;21.00;68.30
68766;DHT22;55756;45.582;11.484;2023-10-09T02:15:47;21.00;68.40
68766;DHT22;55756;45.582;11.484;2023-10-09T02:18:17;21.00;68.30
68766;DHT22;55756;45.582;11.484;2023-10-09T02:21:06;21.00;68.30
68766;DHT22;55756;45.582;11.484;2023-10-09T02:23:34;20.90;68.30
68766;DHT22;55756;45.582;11.484;2023-10-09T02:26:07;20.90;68.40
68766;DHT22;55756;45.582;11.484;2023-10-09T02:28:33;20.90;68.40
68766;DHT22;55756;45.582;11.484;2023-10-09T02:31:00;20.90;68.30
68766;DHT22;55756;45.582;11.484;2023-10-09T02:33:28;20.90;68.10
68766;DHT22;55756;45.582;11.484;2023-10-09T02:35:54;20.90;68.00
68766;DHT22;55756;45.582;11.484;2023-10-09T02:38:21;20.80;68.00
68766;DHT22;55756;45.582;11.484;2023-10-09T02:40:52;20.80;67.90
68766;DHT22;55756;45.582;11.484;2023-10-09T02:43:32;20.80;67.90
68766;DHT22;55756;45.582;11.484;2023-10-09T02:46:24;20.80;67.80
68766;DHT22;55756;45.582;11.484;2023-10-09T02:48:56;20.80;68.00
68766;DHT22;55756;45.582;11.484;2023-10-09T02:51:30;20.80;68.10
68766;DHT22;55756;45.582;11.484;2023-10-09T02:54:04;20.80;68.00
68766;DHT22;55756;45.582;11.484;2023-10-09T02:57:00;20.70;67.50
68766;DHT22;55756;45.582;11.484;2023-10-09T02:59:33;20.70;67.40
68766;DHT22;55756;45.582;11.484;2023-10-09T03:01:59;20.70;67.30
68766;DHT22;55756;45.582;11.484;2023-10-09T03:04:28;20.70;67.20
68766;DHT22;55756;45.582;11.484;2023-10-09T03:06:55;20.70;67.20
68766;DHT22;55756;45.582;11.484;2023-10-09T03:09:23;20.70;67.30
68766;DHT22;55756;45.582;11.484;2023-10-09T03:12:00;20.70;67.20
68766;DHT22;55756;45.582;11.484;2023-10-09T03:14:33;20.60;67.20
68766;DHT22;55756;45.582;11.484;2023-10-09T03:17:01;20.60;67.20
68766;DHT22;55756;45.582;11.484;2023-10-09T03:19:29;20.60;67.10
68766;DHT22;55756;45.582;11.484;2023-10-09T03:21:55;20.60;67.20
68766;DHT22;55756;45.582;11.484;2023-10-09T03:24:25;20.60;67.20
68766;DHT22;55756;45.582;11.484;2023-10-09T03:26:53;20.60;67.00
68766;DHT22;55756;45.582;11.484;2023-10-09T03:29:22;20.60;66.90
68766;DHT22;55756;45.582;11.484;2023-10-09T03:31:47;20.60;67.10
68766;DHT22;55756;45.582;11.484;2023-10-09T03:34:16;20.60;67.00
68766;DHT22;55756;45.582;11.484;2023-10-09T03:36:43;20.60;67.10
68766;DHT22;55756;45.582;11.484;2023-10-09T03:39:09;20.50;67.20
68766;DHT22;55756;45.582;11.484;2023-10-09T03:41:54;20.60;67.20
68766;DHT22;55756;45.582;11.484;2023-10-09T03:44:20;20.60;67.30
68766;DHT22;55756;45.582;11.484;2023-10-09T03:46:46;20.50;67.30
68766;DHT22;55756;45.582;11.484;2023-10-09T03:49:12;20.50;67.20
68766;DHT22;55756;45.582;11.484;2023-10-09T03:51:39;20.50;67.00
68766;DHT22;55756;45.582;11.484;2023-10-09T03:54:05;20.40;67.00
68766;DHT22;55756;45.582;11.484;2023-10-09T03:56:34;20.50;66.90
68766;DHT22;55756;45.582;11.484;2023-10-09T03:59:00;20.40;66.90
68766;DHT22;55756;45.582;11.484;2023-10-09T04:01:30;20.50;67.00
68766;DHT22;55756;45.582;11.484;2023-10-09T04:04:04;20.40;67.10
68766;DHT22;55756;45.582;11.484;2023-10-09T04:06:32;20.40;67.20
68766;DHT22;55756;45.582;11.484;2023-10-09T04:09:03;20.50;67.40
68766;DHT22;55756;45.582;11.484;2023-10-09T04:11:48;20.40;67.30
68766;DHT22;55756;45.582;11.484;2023-10-09T04:14:15;20.40;67.20
68766;DHT22;55756;45.582;11.484;2023-10-09T04:16:52;20.40;67.20
68766;DHT22;55756;45.582;11.484;2023-10-09T04:19:18;20.40;67.20
68766;DHT22;55756;45.582;11.484;2023-10-09T04:21:48;20.40;67.10
68766;DHT22;55756;45.582;11.484;2023-10-09T04:24:14;20.40;67.00
68766;DHT22;55756;45.582;11.484;2023-10-09T04:26:44;20.40;66.80
68766;DHT22;55756;45.582;11.484;2023-10-09T04:29:14;20.40;66.70
68766;DHT22;55756;45.582;11.484;2023-10-09T04:31:55;20.30;66.80
68766;DHT22;55756;45.582;11.484;2023-10-09T04:34:25;20.30;66.80
68766;DHT22;55756;45.582;11.484;2023-10-09T04:36:57;20.30;66.90
68766;DHT22;55756;45.582;11.484;2023-10-09T04:39:29;20.30;66.90
68766;DHT22;55756;45.582;11.484;2023-10-09T04:41:56;20.20;66.50
68766;DHT22;55756;45.582;11.484;2023-10-09T04:44:44;20.30;66.40
68766;DHT22;55756;45.582;11.484;2023-10-09T04:47:26;20.20;66.40
68766;DHT22;55756;45.582;11.484;2023-10-09T04:50:08;20.20;66.40
68766;DHT22;55756;45.582;11.484;2023-10-09T04:53:04;20.20;66.50
68766;DHT22;55756;45.582;11.484;2023-10-09T04:55:42;20.20;66.40
68766;DHT22;55756;45.582;11.484;2023-10-09T04:58:20;20.20;66.40
68766;DHT22;55756;45.582;11.484;2023-10-09T05:00:50;20.10;66.40
68766;DHT22;55756;45.582;11.484;2023-10-09T05:03:25;20.10;66.20
68766;DHT22;55756;45.582;11.484;2023-10-09T05:05:53;20.10;66.10
68766;DHT22;55756;45.582;11.484;2023-10-09T05:08:31;20.10;66.10
68766;DHT22;55756;45.582;11.484;2023-10-09T05:16:18;20.10;66.20
68766;DHT22;55756;45.582;11.484;2023-10-09T05:18:48;20.10;66.30
68766;DHT22;55756;45.582;11.484;2023-10-09T05:21:33;20.10;66.40
68766;DHT22;55756;45.582;11.484;2023-10-09T05:24:10;20.00;66.50
68766;DHT22;55756;45.582;11.484;2023-10-09T05:26:44;20.10;66.50
68766;DHT22;55756;45.582;11.484;2023-10-09T05:29:23;20.10;66.40
68766;DHT22;55756;45.582;11.484;2023-10-09T05:31:59;20.00;66.60
68766;DHT22;55756;45.582;11.484;2023-10-09T05:34:34;20.00;66.70
68766;DHT22;55756;45.582;11.484;2023-10-09T05:37:04;20.00;66.70
68766;DHT22;55756;45.582;11.484;2023-10-09T05:39:52;20.00;66.80
68766;DHT22;55756;45.582;11.484;2023-10-09T05:42:31;20.00;66.90
68766;DHT22;55756;45.582;11.484;2023-10-09T05:45:17;20.00;66.90
68766;DHT22;55756;45.582;11.484;2023-10-09T05:47:46;20.00;66.90
68766;DHT22;55756;45.582;11.484;2023-10-09T05:50:31;20.00;67.00
68766;DHT22;55756;45.582;11.484;2023-10-09T05:53:01;20.00;67.10
68766;DHT22;55756;45.582;11.484;2023-10-09T05:55:27;19.90;67.20
68766;DHT22;55756;45.582;11.484;2023-10-09T05:58:22;20.00;67.10
68766;DHT22;55756;45.582;11.484;2023-10-09T06:01:07;19.90;66.80
68766;DHT22;55756;45.582;11.484;2023-10-09T06:03:52;19.90;66.80
68766;DHT22;55756;45.582;11.484;2023-10-09T06:06:21;19.90;66.80
68766;DHT22;55756;45.582;11.484;2023-10-09T06:09:03;19.90;66.80
68766;DHT22;55756;45.582;11.484;2023-10-09T06:11:39;19.90;66.90
68766;DHT22;55756;45.582;11.484;2023-10-09T06:14:05;19.90;66.90
68766;DHT22;55756;45.582;11.484;2023-10-09T06:16:37;19.90;66.90
68766;DHT22;55756;45.582;11.484;2023-10-09T06:19:32;20.00;66.90
68766;DHT22;55756;45.582;11.484;2023-10-09T06:22:06;20.00;66.70
68766;DHT22;55756;45.582;11.484;2023-10-09T06:24:40;20.00;66.50
68766;DHT22;55756;45.582;11.484;2023-10-09T06:27:18;20.00;66.50
68766;DHT22;55756;45.582;11.484;2023-10-09T06:29:59;20.00;66.60
68766;DHT22;55756;45.582;11.484;2023-10-09T06:32:50;20.00;66.60
68766;DHT22;55756;45.582;11.484;2023-10-09T06:35:46;19.90;66.70
68766;DHT22;55756;45.582;11.484;2023-10-09T06:38:19;20.00;66.80
68766;DHT22;55756;45.582;11.484;2023-10-09T06:40:50;19.90;66.70
68766;DHT22;55756;45.582;11.484;2023-10-09T06:43:31;20.00;66.70
68766;DHT22;55756;45.582;11.484;2023-10-09T06:46:14;20.00;66.60
68766;DHT22;55756;45.582;11.484;2023-10-09T06:49:03;20.00;66.70
68766;DHT22;55756;45.582;11.484;2023-10-09T06:51:49;20.00;66.80
68766;DHT22;55756;45.582;11.484;2023-10-09T06:54:21;20.00;66.80
68766;DHT22;55756;45.582;11.484;2023-10-09T06:56:51;20.10;66.90
68766;DHT22;55756;45.582;11.484;2023-10-09T06:59:38;20.00;66.90
68766;DHT22;55756;45.582;11.484;2023-10-09T07:02:30;20.10;67.20
68766;DHT22;55756;45.582;11.484;2023-10-09T07:05:11;20.10;67.60
68766;DHT22;55756;45.582;11.484;2023-10-09T07:07:43;20.10;67.90
68766;DHT22;55756;45.582;11.484;2023-10-09T07:10:20;20.20;68.20
68766;DHT22;55756;45.582;11.484;2023-10-09T07:12:55;20.20;68.30
68766;DHT22;55756;45.582;11.484;2023-10-09T07:15:22;20.20;68.60
68766;DHT22;55756;45.582;11.484;2023-10-09T07:18:06;20.20;68.80
68766;DHT22;55756;45.582;11.484;2023-10-09T07:20:45;20.20;68.90
68766;DHT22;55756;45.582;11.484;2023-10-09T07:23:25;20.30;69.10
68766;DHT22;55756;45.582;11.484;2023-10-09T07:26:02;20.30;69.30
68766;DHT22;55756;45.582;11.484;2023-10-09T07:28:43;20.40;69.40
68766;DHT22;55756;45.582;11.484;2023-10-09T07:31:19;20.40;69.80
68766;DHT22;55756;45.582;11.484;2023-10-09T07:34:06;20.40;70.00
68766;DHT22;55756;45.582;11.484;2023-10-09T07:36:52;20.40;70.20
68766;DHT22;55756;45.582;11.484;2023-10-09T07:39:22;20.40;70.50
68766;DHT22;55756;45.582;11.484;2023-10-09T07:41:49;20.50;70.60
68766;DHT22;55756;45.582;11.484;2023-10-09T07:44:22;20.50;70.80
68766;DHT22;55756;45.582;11.484;2023-10-09T07:47:02;20.60;71.10
68766;DHT22;55756;45.582;11.484;2023-10-09T07:49:44;20.60;71.30
68766;DHT22;55756;45.582;11.484;2023-10-09T07:52:17;20.60;71.40
68766;DHT22;55756;45.582;11.484;2023-10-09T07:54:43;20.70;71.60
68766;DHT22;55756;45.582;11.484;2023-10-09T07:57:16;20.70;71.90
68766;DHT22;55756;45.582;11.484;2023-10-09T07:59:45;20.70;72.20
68766;DHT22;55756;45.582;11.484;2023-10-09T08:02:23;20.70;72.60
68766;DHT22;55756;45.582;11.484;2023-10-09T08:05:01;20.80;72.50
68766;DHT22;55756;45.582;11.484;2023-10-09T08:07:33;20.80;72.60
68766;DHT22;55756;45.582;11.484;2023-10-09T08:10:07;20.80;72.60
68766;DHT22;55756;45.582;11.484;2023-10-09T08:12:39;20.90;72.80
68766;DHT22;55756;45.582;11.484;2023-10-09T08:15:23;20.90;73.00
68766;DHT22;55756;45.582;11.484;2023-10-09T08:17:55;21.00;73.40
68766;DHT22;55756;45.582;11.484;2023-10-09T08:20:29;21.00;74.00
68766;DHT22;55756;45.582;11.484;2023-10-09T08:23:24;21.10;74.20
68766;DHT22;55756;45.582;11.484;2023-10-09T08:26:14;21.10;74.40
68766;DHT22;55756;45.582;11.484;2023-10-09T08:28:44;21.10;74.40
68766;DHT22;55756;45.582;11.484;2023-10-09T08:31:16;21.20;74.00
68766;DHT22;55756;45.582;11.484;2023-10-09T08:34:02;21.20;73.70
68766;DHT22;55756;45.582;11.484;2023-10-09T08:36:29;21.20;73.60
68766;DHT22;55756;45.582;11.484;2023-10-09T08:39:02;21.30;73.40
68766;DHT22;55756;45.582;11.484;2023-10-09T08:41:42;21.30;73.50
68766;DHT22;55756;45.582;11.484;2023-10-09T08:44:11;21.30;73.40
68766;DHT22;55756;45.582;11.484;2023-10-09T08:46:38;21.30;73.30
68766;DHT22;55756;45.582;11.484;2023-10-09T08:49:05;21.40;73.90
68766;DHT22;55756;45.582;11.484;2023-10-09T08:51:34;21.40;73.40
68766;DHT22;55756;45.582;11.484;2023-10-09T08:54:00;21.40;73.30
68766;DHT22;55756;45.582;11.484;2023-10-09T08:56:26;21.50;73.20
68766;DHT22;55756;45.582;11.484;2023-10-09T08:58:56;21.50;73.20
68766;DHT22;55756;45.582;11.484;2023-10-09T09:01:23;21.50;73.00
68766;DHT22;55756;45.582;11.484;2023-10-09T09:03:51;21.50;72.90
68766;DHT22;55756;45.582;11.484;2023-10-09T09:06:20;21.50;72.90
68766;DHT22;55756;45.582;11.484;2023-10-09T09:08:46;21.60;73.80
68766;DHT22;55756;45.582;11.484;2023-10-09T09:11:16;21.60;73.00
68766;DHT22;55756;45.582;11.484;2023-10-09T09:13:47;21.60;72.90
68766;DHT22;55756;45.582;11.484;2023-10-09T09:16:24;21.70;72.80
68766;DHT22;55756;45.582;11.484;2023-10-09T09:19:00;21.70;72.90
68766;DHT22;55756;45.582;11.484;2023-10-09T09:21:32;21.70;73.10
68766;DHT22;55756;45.582;11.484;2023-10-09T09:24:07;21.70;72.80
68766;DHT22;55756;45.582;11.484;2023-10-09T09:26:49;21.80;73.00
68766;DHT22;55756;45.582;11.484;2023-10-09T09:32:10;21.80;73.40
68766;DHT22;55756;45.582;11.484;2023-10-09T09:34:47;21.80;72.80
68766;DHT22;55756;45.582;11.484;2023-10-09T09:37:22;21.90;72.70
68766;DHT22;55756;45.582;11.484;2023-10-09T09:39:58;21.90;72.60
68766;DHT22;55756;45.582;11.484;2023-10-09T09:42:29;21.90;72.90
68766;DHT22;55756;45.582;11.484;2023-10-09T09:45:00;21.90;73.30
68766;DHT22;55756;45.582;11.484;2023-10-09T09:47:26;21.90;73.10
68766;DHT22;55756;45.582;11.484;2023-10-09T09:49:53;22.00;72.70
68766;DHT22;55756;45.582;11.484;2023-10-09T09:52:31;22.00;72.50
68766;DHT22;55756;45.582;11.484;2023-10-09T09:55:04;22.00;72.50
68766;DHT22;55756;45.582;11.484;2023-10-09T09:57:29;22.00;72.50
68766;DHT22;55756;45.582;11.484;2023-10-09T09:59:57;22.00;72.50
68766;DHT22;55756;45.582;11.484;2023-10-09T10:02:32;22.00;72.50
68766;DHT22;55756;45.582;11.484;2023-10-09T10:05:04;22.00;72.50
68766;DHT22;55756;45.582;11.484;2023-10-09T10:07:33;22.00;72.60
68766;DHT22;55756;45.582;11.484;2023-10-09T10:12:59;22.00;72.30
68766;DHT22;55756;45.582;11.484;2023-10-09T10:18:23;22.10;72.20
68766;DHT22;55756;45.582;11.484;2023-10-09T10:23:40;22.10;71.90
68766;DHT22;55756;45.582;11.484;2023-10-09T10:26:26;22.20;71.80
68766;DHT22;55756;45.582;11.484;2023-10-09T10:29:20;22.20;71.60
68766;DHT22;55756;45.582;11.484;2023-10-09T10:37:37;22.30;71.20
68766;DHT22;55756;45.582;11.484;2023-10-09T10:40:24;22.30;71.10
68766;DHT22;55756;45.582;11.484;2023-10-09T10:43:20;22.30;70.90
68766;DHT22;55756;45.582;11.484;2023-10-09T10:46:14;22.30;70.90
68766;DHT22;55756;45.582;11.484;2023-10-09T10:48:42;22.30;70.80
68766;DHT22;55756;45.582;11.484;2023-10-09T10:51:14;22.30;70.60
68766;DHT22;55756;45.582;11.484;2023-10-09T10:53:54;22.30;70.60
68766;DHT22;55756;45.582;11.484;2023-10-09T10:56:25;22.40;70.50
68766;DHT22;55756;45.582;11.484;2023-10-09T10:59:01;22.40;70.40
68766;DHT22;55756;45.582;11.484;2023-10-09T11:01:33;22.40;70.30
68766;DHT22;55756;45.582;11.484;2023-10-09T11:04:18;22.40;70.20
68766;DHT22;55756;45.582;11.484;2023-10-09T11:06:54;22.40;70.00
68766;DHT22;55756;45.582;11.484;2023-10-09T11:09:52;22.40;69.80
68766;DHT22;55756;45.582;11.484;2023-10-09T11:12:44;22.50;69.70
68766;DHT22;55756;45.582;11.484;2023-10-09T11:15:33;22.50;69.60
68766;DHT22;55756;45.582;11.484;2023-10-09T11:18:42;22.50;69.40
68766;DHT22;55756;45.582;11.484;2023-10-09T11:21:14;22.50;69.30
68766;DHT22;55756;45.582;11.484;2023-10-09T11:23:41;22.60;69.20
68766;DHT22;55756;45.582;11.484;2023-10-09T11:26:16;22.60;69.10
68766;DHT22;55756;45.582;11.484;2023-10-09T11:29:15;22.60;69.10
68766;DHT22;55756;45.582;11.484;2023-10-09T11:32:05;22.60;68.90
68766;DHT22;55756;45.582;11.484;2023-10-09T11:34:34;22.60;68.90
68766;DHT22;55756;45.582;11.484;2023-10-09T11:39:37;22.60;68.80
68766;DHT22;55756;45.582;11.484;2023-10-09T11:42:18;22.70;68.80
68766;DHT22;55756;45.582;11.484;2023-10-09T11:45:26;22.70;68.70
68766;DHT22;55756;45.582;11.484;2023-10-09T11:48:18;22.70;68.60
68766;DHT22;55756;45.582;11.484;2023-10-09T11:51:12;22.70;68.60
68766;DHT22;55756;45.582;11.484;2023-10-09T11:53:45;22.70;68.50
68766;DHT22;55756;45.582;11.484;2023-10-09T11:56:23;22.80;68.50
68766;DHT22;55756;45.582;11.484;2023-10-09T11:58:52;22.80;68.40
68766;DHT22;55756;45.582;11.484;2023-10-09T12:01:20;22.80;68.40
68766;DHT22;55756;45.582;11.484;2023-10-09T12:03:47;22.80;68.30
68766;DHT22;55756;45.582;11.484;2023-10-09T12:06:19;22.80;68.30
68766;DHT22;55756;45.582;11.484;2023-10-09T12:08:47;22.80;68.20
68766;DHT22;55756;45.582;11.484;2023-10-09T12:11:13;22.90;68.20
68766;DHT22;55756;45.582;11.484;2023-10-09T12:13:41;22.90;68.10
68766;DHT22;55756;45.582;11.484;2023-10-09T12:16:16;22.90;68.00
68766;DHT22;55756;45.582;11.484;2023-10-09T12:18:48;22.90;68.00
68766;DHT22;55756;45.582;11.484;2023-10-09T12:21:20;22.90;67.90
68766;DHT22;55756;45.582;11.484;2023-10-09T12:23:46;22.90;67.80
68766;DHT22;55756;45.582;11.484;2023-10-09T12:26:13;22.90;67.80
68766;DHT22;55756;45.582;11.484;2023-10-09T12:28:42;22.90;67.80
68766;DHT22;55756;45.582;11.484;2023-10-09T12:31:14;23.00;67.80
68766;DHT22;55756;45.582;11.484;2023-10-09T12:33:41;23.00;67.80
68766;DHT22;55756;45.582;11.484;2023-10-09T12:36:11;23.00;67.70
68766;DHT22;55756;45.582;11.484;2023-10-09T12:38:43;23.00;67.70
68766;DHT22;55756;45.582;11.484;2023-10-09T12:41:11;23.00;67.70
68766;DHT22;55756;45.582;11.484;2023-10-09T12:43:54;23.00;67.70
68766;DHT22;55756;45.582;11.484;2023-10-09T12:46:20;23.00;67.70
68766;DHT22;55756;45.582;11.484;2023-10-09T12:48:51;23.10;67.60
68766;DHT22;55756;45.582;11.484;2023-10-09T12:51:20;23.10;67.60
68766;DHT22;55756;45.582;11.484;2023-10-09T12:53:46;23.10;67.50
68766;DHT22;55756;45.582;11.484;2023-10-09T12:56:27;23.10;67.50
68766;DHT22;55756;45.582;11.484;2023-10-09T12:59:02;23.10;67.40
68766;DHT22;55756;45.582;11.484;2023-10-09T13:01:30;23.20;67.40
68766;DHT22;55756;45.582;11.484;2023-10-09T13:04:23;23.20;67.40
68766;DHT22;55756;45.582;11.484;2023-10-09T13:06:49;23.20;67.40
68766;DHT22;55756;45.582;11.484;2023-10-09T13:09:18;23.20;67.40
68766;DHT22;55756;45.582;11.484;2023-10-09T13:11:50;23.20;67.40
68766;DHT22;55756;45.582;11.484;2023-10-09T13:14:16;23.20;67.40
68766;DHT22;55756;45.582;11.484;2023-10-09T13:16:45;23.20;67.40
68766;DHT22;55756;45.582;11.484;2023-10-09T13:19:12;23.30;67.40
68766;DHT22;55756;45.582;11.484;2023-10-09T13:21:38;23.30;67.30
68766;DHT22;55756;45.582;11.484;2023-10-09T13:24:08;23.30;67.30
68766;DHT22;55756;45.582;11.484;2023-10-09T13:26:44;23.30;67.20
68766;DHT22;55756;45.582;11.484;2023-10-09T13:29:13;23.30;67.20
68766;DHT22;55756;45.582;11.484;2023-10-09T13:31:39;23.30;67.20
68766;DHT22;55756;45.582;11.484;2023-10-09T13:34:12;23.30;67.10
68766;DHT22;55756;45.582;11.484;2023-10-09T13:36:41;23.30;67.00
68766;DHT22;55756;45.582;11.484;2023-10-09T13:39:16;23.40;67.00
68766;DHT22;55756;45.582;11.484;2023-10-09T13:41:55;23.40;66.90
68766;DHT22;55756;45.582;11.484;2023-10-09T13:44:34;23.40;66.90
68766;DHT22;55756;45.582;11.484;2023-10-09T13:47:04;23.40;66.90
68766;DHT22;55756;45.582;11.484;2023-10-09T13:49:45;23.40;66.90
68766;DHT22;55756;45.582;11.484;2023-10-09T13:52:10;23.40;66.90
68766;DHT22;55756;45.582;11.484;2023-10-09T13:54:44;23.40;66.90
68766;DHT22;55756;45.582;11.484;2023-10-09T13:57:13;23.50;66.90
68766;DHT22;55756;45.582;11.484;2023-10-09T13:59:41;23.50;66.80
68766;DHT22;55756;45.582;11.484;2023-10-09T14:02:15;23.50;66.80
68766;DHT22;55756;45.582;11.484;2023-10-09T14:04:45;23.50;66.80
68766;DHT22;55756;45.582;11.484;2023-10-09T14:07:12;23.50;66.80
68766;DHT22;55756;45.582;11.484;2023-10-09T14:09:43;23.50;66.80
68766;DHT22;55756;45.582;11.484;2023-10-09T14:12:09;23.50;66.70
68766;DHT22;55756;45.582;11.484;2023-10-09T14:14:40;23.50;66.60
68766;DHT22;55756;45.582;11.484;2023-10-09T14:17:16;23.50;66.70
68766;DHT22;55756;45.582;11.484;2023-10-09T14:19:47;23.50;66.70
68766;DHT22;55756;45.582;11.484;2023-10-09T14:22:14;23.60;66.60
68766;DHT22;55756;45.582;11.484;2023-10-09T14:24:45;23.50;66.60
68766;DHT22;55756;45.582;11.484;2023-10-09T14:27:14;23.60;66.60
68766;DHT22;55756;45.582;11.484;2023-10-09T14:29:53;23.60;66.50
68766;DHT22;55756;45.582;11.484;2023-10-09T14:32:25;23.60;66.50
68766;DHT22;55756;45.582;11.484;2023-10-09T14:34:55;23.60;66.40
68766;DHT22;55756;45.582;11.484;2023-10-09T14:37:29;23.60;66.50
68766;DHT22;55756;45.582;11.484;2023-10-09T14:39:57;23.60;66.40
68766;DHT22;55756;45.582;11.484;2023-10-09T14:42:24;23.60;66.30
68766;DHT22;55756;45.582;11.484;2023-10-09T14:44:53;23.60;66.30
68766;DHT22;55756;45.582;11.484;2023-10-09T14:47:20;23.60;66.30
68766;DHT22;55756;45.582;11.484;2023-10-09T14:49:49;23.60;66.20
68766;DHT22;55756;45.582;11.484;2023-10-09T14:52:16;23.60;66.20
68766;DHT22;55756;45.582;11.484;2023-10-09T14:54:46;23.60;66.20
68766;DHT22;55756;45.582;11.484;2023-10-09T14:57:12;23.60;66.20
68766;DHT22;55756;45.582;11.484;2023-10-09T14:59:39;23.60;66.20
68766;DHT22;55756;45.582;11.484;2023-10-09T15:02:05;23.60;66.10
68766;DHT22;55756;45.582;11.484;2023-10-09T15:04:33;23.70;66.10
68766;DHT22;55756;45.582;11.484;2023-10-09T15:07:01;23.70;66.10
68766;DHT22;55756;45.582;11.484;2023-10-09T15:09:27;23.70;66.00
68766;DHT22;55756;45.582;11.484;2023-10-09T15:11:56;23.70;66.10
68766;DHT22;55756;45.582;11.484;2023-10-09T15:14:23;23.70;66.10
68766;DHT22;55756;45.582;11.484;2023-10-09T15:16:49;23.70;66.10
68766;DHT22;55756;45.582;11.484;2023-10-09T15:19:16;23.70;66.00
68766;DHT22;55756;45.582;11.484;2023-10-09T15:21:43;23.70;66.00
68766;DHT22;55756;45.582;11.484;2023-10-09T15:24:15;23.70;66.10
68766;DHT22;55756;45.582;11.484;2023-10-09T15:26:42;23.70;66.00
68766;DHT22;55756;45.582;11.484;2023-10-09T15:29:08;23.70;66.00
68766;DHT22;55756;45.582;11.484;2023-10-09T15:31:36;23.70;66.00
68766;DHT22;55756;45.582;11.484;2023-10-09T15:34:02;23.70;66.00
68766;DHT22;55756;45.582;11.484;2023-10-09T15:36:28;23.70;66.00
68766;DHT22;55756;45.582;11.484;2023-10-09T15:38:58;23.70;66.00
68766;DHT22;55756;45.582;11.484;2023-10-09T15:41:27;23.70;66.00
68766;DHT22;55756;45.582;11.484;2023-10-09T15:43:58;23.80;66.00
68766;DHT22;55756;45.582;11.484;2023-10-09T15:46:24;23.80;66.00
68766;DHT22;55756;45.582;11.484;2023-10-09T15:48:51;23.80;66.00
68766;DHT22;55756;45.582;11.484;2023-10-09T15:51:19;23.70;66.00
68766;DHT22;55756;45.582;11.484;2023-10-09T15:53:45;23.80;66.00
68766;DHT22;55756;45.582;11.484;2023-10-09T15:56:12;23.70;66.00
68766;DHT22;55756;45.582;11.484;2023-10-09T15:58:41;23.80;66.00
68766;DHT22;55756;45.582;11.484;2023-10-09T16:01:14;23.80;66.00
68766;DHT22;55756;45.582;11.484;2023-10-09T16:03:42;23.80;66.00
68766;DHT22;55756;45.582;11.484;2023-10-09T16:06:09;23.80;66.00
68766;DHT22;55756;45.582;11.484;2023-10-09T16:08:41;23.80;66.00
68766;DHT22;55756;45.582;11.484;2023-10-09T16:11:08;23.80;66.00
68766;DHT22;55756;45.582;11.484;2023-10-09T16:13:34;23.80;66.00
68766;DHT22;55756;45.582;11.484;2023-10-09T16:16:01;23.80;66.00
68766;DHT22;55756;45.582;11.484;2023-10-09T16:18:27;23.80;66.10
68766;DHT22;55756;45.582;11.484;2023-10-09T16:20:56;23.80;66.10
68766;DHT22;55756;45.582;11.484;2023-10-09T16:23:22;23.80;66.20
68766;DHT22;55756;45.582;11.484;2023-10-09T16:25:48;23.80;66.30